Aérodrome :
LOGIN :

S'inscrire | Disclaimer

   EN    FR    IT 

 










Légende :    VFR   VFR Marginal   IFR   IFR Intensif   IFR Très Intensif
Visi : 
Plafond : 
>= 8 km
>= 3000ft
5 à 8 km
1000 à 3000 ft
1500m à 5 km
500 à 1000 ft
800 à 1500m
200 à 500 ft
< 800m
< 200 ft
Symboles :   Orages  Brouillard  Fortes neiges  Fortes précipitations  Vent > 20 kt
SIGMETs :   Divers  Orages  Givrage  Turbulence  Onde Orograph.  Cendres Volcan.






- Altitude de l'aérodrome : 63 ft
- Code IATA : BZM


EHWO - Woensdrecht Airbase

DERNIER METAR :
  • 221325Z AUTO 08007KT 030V160 9999 OVC380 21/10 Q1013 BLU

METARs EXPIRÉS :
  • 221255Z AUTO 09008KT 350V130 9999 NCD 21/10 Q1013 BLU
  • 221225Z AUTO 07006KT 340V140 9999 NCD 21/10 Q1014 BLU
  • 221155Z AUTO 09005KT 010V180 9999 FEW045 20/10 Q1014 BLU
  • 221125Z AUTO VRB04KT 9999 SCT042 20/09 Q1015 BLU
  • 221055Z AUTO 03005KT 020V130 9999 FEW044 20/09 Q1015 BLU

Prévision TAF périmée.



MET'MAP, la Météo Aéronautique d'un coup d'oeil ! - Copyright ORBIFLY Décembre 2007 - Disclaimer

ORBIFLY MET'MAP TEAM :

Programmation & Développement : Alexandra Zaïnal
Sur une idée originale de : Baudouin d'Aumeries
Soutien technique & logistique : Manuel Goepfert
Assistance : Marc-Olivier Méhu

Contact : metmap@orbifly.com




SOURCES & CREDITS :

   NOAA